sensor_id;sensor_type;location;lat;lon;timestamp;P1;durP1;ratioP1;P2;durP2;ratioP2
33268;SDS011;19640;50.944;5.260;2023-12-04T00:01:18;10.23;;;5.40;;
33268;SDS011;19640;50.944;5.260;2023-12-04T00:03:44;7.00;;;5.28;;
33268;SDS011;19640;50.944;5.260;2023-12-04T00:06:10;9.43;;;5.72;;
33268;SDS011;19640;50.944;5.260;2023-12-04T00:08:36;8.10;;;5.57;;
33268;SDS011;19640;50.944;5.260;2023-12-04T00:11:03;6.95;;;4.35;;
33268;SDS011;19640;50.944;5.260;2023-12-04T00:13:32;8.10;;;4.97;;
33268;SDS011;19640;50.944;5.260;2023-12-04T00:15:58;9.77;;;5.20;;
33268;SDS011;19640;50.944;5.260;2023-12-04T00:18:24;8.05;;;4.53;;
33268;SDS011;19640;50.944;5.260;2023-12-04T00:20:49;10.30;;;5.53;;
33268;SDS011;19640;50.944;5.260;2023-12-04T00:23:15;7.57;;;4.80;;
33268;SDS011;19640;50.944;5.260;2023-12-04T00:25:41;10.77;;;5.38;;
33268;SDS011;19640;50.944;5.260;2023-12-04T00:28:07;9.43;;;5.15;;
33268;SDS011;19640;50.944;5.260;2023-12-04T00:30:32;9.00;;;5.40;;
33268;SDS011;19640;50.944;5.260;2023-12-04T00:32:58;7.55;;;4.55;;
33268;SDS011;19640;50.944;5.260;2023-12-04T00:35:24;8.00;;;5.20;;
33268;SDS011;19640;50.944;5.260;2023-12-04T00:37:49;9.43;;;5.40;;
33268;SDS011;19640;50.944;5.260;2023-12-04T00:40:15;12.02;;;5.10;;
33268;SDS011;19640;50.944;5.260;2023-12-04T00:42:41;8.75;;;5.32;;
33268;SDS011;19640;50.944;5.260;2023-12-04T00:45:07;10.70;;;6.18;;
33268;SDS011;19640;50.944;5.260;2023-12-04T00:47:33;9.30;;;5.90;;
33268;SDS011;19640;50.944;5.260;2023-12-04T00:49:59;7.78;;;5.50;;
33268;SDS011;19640;50.944;5.260;2023-12-04T00:52:24;8.02;;;5.53;;
33268;SDS011;19640;50.944;5.260;2023-12-04T00:54:50;10.55;;;5.40;;
33268;SDS011;19640;50.944;5.260;2023-12-04T00:57:16;10.07;;;5.68;;
33268;SDS011;19640;50.944;5.260;2023-12-04T00:59:42;8.98;;;6.10;;
33268;SDS011;19640;50.944;5.260;2023-12-04T01:02:07;7.78;;;6.10;;
33268;SDS011;19640;50.944;5.260;2023-12-04T01:04:33;8.13;;;5.38;;
33268;SDS011;19640;50.944;5.260;2023-12-04T01:06:59;9.35;;;6.13;;
33268;SDS011;19640;50.944;5.260;2023-12-04T01:09:25;8.93;;;5.88;;
33268;SDS011;19640;50.944;5.260;2023-12-04T01:11:53;10.85;;;5.68;;
33268;SDS011;19640;50.944;5.260;2023-12-04T01:14:19;10.10;;;6.07;;
33268;SDS011;19640;50.944;5.260;2023-12-04T01:16:45;10.50;;;5.78;;
33268;SDS011;19640;50.944;5.260;2023-12-04T01:19:12;10.05;;;5.78;;
33268;SDS011;19640;50.944;5.260;2023-12-04T01:21:38;12.40;;;6.53;;
33268;SDS011;19640;50.944;5.260;2023-12-04T01:24:03;9.45;;;6.38;;
33268;SDS011;19640;50.944;5.260;2023-12-04T01:26:29;11.98;;;6.05;;
33268;SDS011;19640;50.944;5.260;2023-12-04T01:28:56;12.13;;;6.00;;
33268;SDS011;19640;50.944;5.260;2023-12-04T01:31:21;13.38;;;6.15;;
33268;SDS011;19640;50.944;5.260;2023-12-04T01:33:47;8.70;;;5.57;;
33268;SDS011;19640;50.944;5.260;2023-12-04T01:36:13;10.13;;;6.03;;
33268;SDS011;19640;50.944;5.260;2023-12-04T01:38:38;11.20;;;6.50;;
33268;SDS011;19640;50.944;5.260;2023-12-04T01:41:04;11.05;;;6.07;;
33268;SDS011;19640;50.944;5.260;2023-12-04T01:43:30;10.23;;;6.68;;
33268;SDS011;19640;50.944;5.260;2023-12-04T01:45:56;9.25;;;6.07;;
33268;SDS011;19640;50.944;5.260;2023-12-04T01:48:24;9.75;;;6.90;;
33268;SDS011;19640;50.944;5.260;2023-12-04T01:50:51;12.02;;;6.85;;
33268;SDS011;19640;50.944;5.260;2023-12-04T01:53:18;10.60;;;6.60;;
33268;SDS011;19640;50.944;5.260;2023-12-04T01:55:44;11.60;;;6.60;;
33268;SDS011;19640;50.944;5.260;2023-12-04T01:58:11;9.98;;;6.22;;
33268;SDS011;19640;50.944;5.260;2023-12-04T02:00:37;10.38;;;5.85;;
33268;SDS011;19640;50.944;5.260;2023-12-04T02:03:03;9.45;;;6.15;;
33268;SDS011;19640;50.944;5.260;2023-12-04T02:05:29;10.65;;;5.70;;
33268;SDS011;19640;50.944;5.260;2023-12-04T02:07:56;11.50;;;7.15;;
33268;SDS011;19640;50.944;5.260;2023-12-04T02:10:22;10.13;;;5.93;;
33268;SDS011;19640;50.944;5.260;2023-12-04T02:12:49;10.30;;;6.30;;
33268;SDS011;19640;50.944;5.260;2023-12-04T02:15:15;12.73;;;6.32;;
33268;SDS011;19640;50.944;5.260;2023-12-04T02:17:42;9.02;;;5.80;;
33268;SDS011;19640;50.944;5.260;2023-12-04T02:20:09;13.25;;;6.10;;
33268;SDS011;19640;50.944;5.260;2023-12-04T02:22:37;11.07;;;6.95;;
33268;SDS011;19640;50.944;5.260;2023-12-04T02:25:03;12.73;;;6.03;;
33268;SDS011;19640;50.944;5.260;2023-12-04T02:27:47;12.00;;;6.70;;
33268;SDS011;19640;50.944;5.260;2023-12-04T02:30:15;11.70;;;6.28;;
33268;SDS011;19640;50.944;5.260;2023-12-04T02:32:45;9.98;;;5.53;;
33268;SDS011;19640;50.944;5.260;2023-12-04T02:35:12;9.52;;;5.20;;
33268;SDS011;19640;50.944;5.260;2023-12-04T02:37:41;9.40;;;5.90;;
33268;SDS011;19640;50.944;5.260;2023-12-04T02:40:07;9.30;;;5.65;;
33268;SDS011;19640;50.944;5.260;2023-12-04T02:42:35;8.93;;;6.00;;
33268;SDS011;19640;50.944;5.260;2023-12-04T02:45:01;11.30;;;5.65;;
33268;SDS011;19640;50.944;5.260;2023-12-04T02:47:27;10.85;;;6.97;;
33268;SDS011;19640;50.944;5.260;2023-12-04T02:49:52;11.15;;;6.40;;
33268;SDS011;19640;50.944;5.260;2023-12-04T02:52:18;9.90;;;7.03;;
33268;SDS011;19640;50.944;5.260;2023-12-04T02:54:44;8.20;;;5.53;;
33268;SDS011;19640;50.944;5.260;2023-12-04T02:57:10;9.68;;;5.93;;
33268;SDS011;19640;50.944;5.260;2023-12-04T02:59:35;8.80;;;6.53;;
33268;SDS011;19640;50.944;5.260;2023-12-04T03:02:01;9.02;;;6.25;;
33268;SDS011;19640;50.944;5.260;2023-12-04T03:04:30;7.45;;;4.80;;
33268;SDS011;19640;50.944;5.260;2023-12-04T03:06:57;9.40;;;5.55;;
33268;SDS011;19640;50.944;5.260;2023-12-04T03:09:22;9.82;;;5.70;;
33268;SDS011;19640;50.944;5.260;2023-12-04T03:11:48;9.65;;;5.55;;
33268;SDS011;19640;50.944;5.260;2023-12-04T03:14:14;8.40;;;5.30;;
33268;SDS011;19640;50.944;5.260;2023-12-04T03:16:40;8.10;;;5.40;;
33268;SDS011;19640;50.944;5.260;2023-12-04T03:19:05;7.70;;;5.32;;
33268;SDS011;19640;50.944;5.260;2023-12-04T03:21:31;10.00;;;6.05;;
33268;SDS011;19640;50.944;5.260;2023-12-04T03:23:57;14.60;;;5.20;;
33268;SDS011;19640;50.944;5.260;2023-12-04T03:26:22;7.78;;;5.80;;
33268;SDS011;19640;50.944;5.260;2023-12-04T03:28:48;6.93;;;4.22;;
33268;SDS011;19640;50.944;5.260;2023-12-04T03:31:14;6.75;;;4.93;;
33268;SDS011;19640;50.944;5.260;2023-12-04T03:33:39;6.30;;;4.85;;
33268;SDS011;19640;50.944;5.260;2023-12-04T03:36:05;10.10;;;5.10;;
33268;SDS011;19640;50.944;5.260;2023-12-04T03:38:31;8.30;;;5.22;;
33268;SDS011;19640;50.944;5.260;2023-12-04T03:40:57;9.02;;;5.45;;
33268;SDS011;19640;50.944;5.260;2023-12-04T03:43:23;6.82;;;3.92;;
33268;SDS011;19640;50.944;5.260;2023-12-04T03:45:48;4.50;;;3.10;;
33268;SDS011;19640;50.944;5.260;2023-12-04T03:48:14;8.70;;;4.97;;
33268;SDS011;19640;50.944;5.260;2023-12-04T03:50:40;7.10;;;4.18;;
33268;SDS011;19640;50.944;5.260;2023-12-04T03:53:06;6.43;;;4.32;;
33268;SDS011;19640;50.944;5.260;2023-12-04T03:55:31;5.95;;;4.32;;
33268;SDS011;19640;50.944;5.260;2023-12-04T03:57:57;6.35;;;4.07;;
33268;SDS011;19640;50.944;5.260;2023-12-04T04:00:24;6.97;;;4.18;;
33268;SDS011;19640;50.944;5.260;2023-12-04T04:02:50;7.15;;;4.40;;
33268;SDS011;19640;50.944;5.260;2023-12-04T04:05:15;7.13;;;4.63;;
33268;SDS011;19640;50.944;5.260;2023-12-04T04:07:41;6.72;;;4.95;;
33268;SDS011;19640;50.944;5.260;2023-12-04T04:10:07;7.22;;;4.60;;
33268;SDS011;19640;50.944;5.260;2023-12-04T04:12:33;7.15;;;4.50;;
33268;SDS011;19640;50.944;5.260;2023-12-04T04:14:59;6.72;;;4.47;;
33268;SDS011;19640;50.944;5.260;2023-12-04T04:17:25;6.43;;;4.53;;
33268;SDS011;19640;50.944;5.260;2023-12-04T04:19:54;6.68;;;4.22;;
33268;SDS011;19640;50.944;5.260;2023-12-04T04:22:20;6.03;;;4.03;;
33268;SDS011;19640;50.944;5.260;2023-12-04T04:24:46;8.27;;;4.80;;
33268;SDS011;19640;50.944;5.260;2023-12-04T04:27:13;6.28;;;4.82;;
33268;SDS011;19640;50.944;5.260;2023-12-04T04:29:39;6.15;;;4.97;;
33268;SDS011;19640;50.944;5.260;2023-12-04T04:32:04;6.00;;;3.95;;
33268;SDS011;19640;50.944;5.260;2023-12-04T04:34:30;7.82;;;4.80;;
33268;SDS011;19640;50.944;5.260;2023-12-04T04:36:56;7.85;;;5.20;;
33268;SDS011;19640;50.944;5.260;2023-12-04T04:39:22;7.93;;;4.95;;
33268;SDS011;19640;50.944;5.260;2023-12-04T04:41:47;6.75;;;3.67;;
33268;SDS011;19640;50.944;5.260;2023-12-04T04:44:13;9.15;;;4.68;;
33268;SDS011;19640;50.944;5.260;2023-12-04T04:46:39;6.43;;;4.65;;
33268;SDS011;19640;50.944;5.260;2023-12-04T04:49:04;6.05;;;3.95;;
33268;SDS011;19640;50.944;5.260;2023-12-04T04:51:33;8.65;;;4.60;;
33268;SDS011;19640;50.944;5.260;2023-12-04T04:54:02;8.68;;;4.22;;
33268;SDS011;19640;50.944;5.260;2023-12-04T04:56:28;7.85;;;4.63;;
33268;SDS011;19640;50.944;5.260;2023-12-04T04:58:54;5.05;;;3.97;;
33268;SDS011;19640;50.944;5.260;2023-12-04T05:01:20;6.50;;;4.57;;
33268;SDS011;19640;50.944;5.260;2023-12-04T05:03:46;6.13;;;3.58;;
33268;SDS011;19640;50.944;5.260;2023-12-04T05:06:12;8.88;;;4.75;;
33268;SDS011;19640;50.944;5.260;2023-12-04T05:08:37;6.88;;;4.13;;
33268;SDS011;19640;50.944;5.260;2023-12-04T05:11:03;6.65;;;4.30;;
33268;SDS011;19640;50.944;5.260;2023-12-04T05:13:29;7.85;;;5.05;;
33268;SDS011;19640;50.944;5.260;2023-12-04T05:15:55;6.88;;;4.82;;
33268;SDS011;19640;50.944;5.260;2023-12-04T05:18:20;5.88;;;4.13;;
33268;SDS011;19640;50.944;5.260;2023-12-04T05:20:46;6.95;;;4.22;;
33268;SDS011;19640;50.944;5.260;2023-12-04T05:23:12;6.28;;;4.00;;
33268;SDS011;19640;50.944;5.260;2023-12-04T05:25:37;6.55;;;4.07;;
33268;SDS011;19640;50.944;5.260;2023-12-04T05:28:03;5.55;;;4.07;;
33268;SDS011;19640;50.944;5.260;2023-12-04T05:30:29;6.80;;;3.90;;
33268;SDS011;19640;50.944;5.260;2023-12-04T05:32:55;6.43;;;4.07;;
33268;SDS011;19640;50.944;5.260;2023-12-04T05:35:21;6.07;;;4.15;;
33268;SDS011;19640;50.944;5.260;2023-12-04T05:37:47;5.53;;;4.15;;
33268;SDS011;19640;50.944;5.260;2023-12-04T05:40:13;5.75;;;3.90;;
33268;SDS011;19640;50.944;5.260;2023-12-04T05:42:39;5.88;;;3.83;;
33268;SDS011;19640;50.944;5.260;2023-12-04T05:45:05;5.40;;;3.55;;
33268;SDS011;19640;50.944;5.260;2023-12-04T05:47:32;3.42;;;2.38;;
33268;SDS011;19640;50.944;5.260;2023-12-04T05:49:59;5.47;;;3.95;;
33268;SDS011;19640;50.944;5.260;2023-12-04T05:52:25;5.32;;;3.65;;
33268;SDS011;19640;50.944;5.260;2023-12-04T05:54:51;5.00;;;3.65;;
33268;SDS011;19640;50.944;5.260;2023-12-04T05:57:16;5.30;;;3.60;;
33268;SDS011;19640;50.944;5.260;2023-12-04T05:59:42;5.05;;;3.70;;
33268;SDS011;19640;50.944;5.260;2023-12-04T06:02:08;5.25;;;3.30;;
33268;SDS011;19640;50.944;5.260;2023-12-04T06:04:34;5.05;;;3.03;;
33268;SDS011;19640;50.944;5.260;2023-12-04T06:06:59;7.22;;;3.28;;
33268;SDS011;19640;50.944;5.260;2023-12-04T06:09:25;4.47;;;3.15;;
33268;SDS011;19640;50.944;5.260;2023-12-04T06:11:51;5.78;;;3.65;;
33268;SDS011;19640;50.944;5.260;2023-12-04T06:14:16;4.45;;;3.15;;
33268;SDS011;19640;50.944;5.260;2023-12-04T06:16:42;5.47;;;3.78;;
33268;SDS011;19640;50.944;5.260;2023-12-04T06:19:08;5.50;;;3.25;;
33268;SDS011;19640;50.944;5.260;2023-12-04T06:21:33;4.88;;;3.58;;
33268;SDS011;19640;50.944;5.260;2023-12-04T06:23:59;4.53;;;3.45;;
33268;SDS011;19640;50.944;5.260;2023-12-04T06:26:25;4.75;;;3.33;;
33268;SDS011;19640;50.944;5.260;2023-12-04T06:28:51;4.03;;;2.97;;
33268;SDS011;19640;50.944;5.260;2023-12-04T06:31:17;8.70;;;3.45;;
33268;SDS011;19640;50.944;5.260;2023-12-04T06:33:43;4.78;;;3.10;;
33268;SDS011;19640;50.944;5.260;2023-12-04T06:36:09;4.95;;;2.97;;
33268;SDS011;19640;50.944;5.260;2023-12-04T06:38:39;6.20;;;3.53;;
33268;SDS011;19640;50.944;5.260;2023-12-04T06:41:05;4.10;;;2.72;;
33268;SDS011;19640;50.944;5.260;2023-12-04T06:43:32;4.93;;;3.08;;
33268;SDS011;19640;50.944;5.260;2023-12-04T06:45:58;3.50;;;2.55;;
33268;SDS011;19640;50.944;5.260;2023-12-04T06:48:24;6.53;;;2.20;;
33268;SDS011;19640;50.944;5.260;2023-12-04T06:50:50;3.38;;;2.22;;
33268;SDS011;19640;50.944;5.260;2023-12-04T06:53:16;4.15;;;2.85;;
33268;SDS011;19640;50.944;5.260;2023-12-04T06:55:41;4.32;;;2.38;;
33268;SDS011;19640;50.944;5.260;2023-12-04T06:58:07;3.03;;;2.28;;
33268;SDS011;19640;50.944;5.260;2023-12-04T07:00:33;3.70;;;2.83;;
33268;SDS011;19640;50.944;5.260;2023-12-04T07:02:59;4.60;;;2.47;;
33268;SDS011;19640;50.944;5.260;2023-12-04T07:05:25;3.85;;;3.08;;
33268;SDS011;19640;50.944;5.260;2023-12-04T07:07:50;2.70;;;1.88;;
33268;SDS011;19640;50.944;5.260;2023-12-04T07:10:16;2.92;;;2.28;;
33268;SDS011;19640;50.944;5.260;2023-12-04T07:12:42;2.75;;;1.90;;
33268;SDS011;19640;50.944;5.260;2023-12-04T07:15:09;1.88;;;1.45;;
33268;SDS011;19640;50.944;5.260;2023-12-04T07:17:36;5.07;;;2.85;;
33268;SDS011;19640;50.944;5.260;2023-12-04T07:20:02;4.38;;;2.63;;
33268;SDS011;19640;50.944;5.260;2023-12-04T07:22:31;2.97;;;2.22;;
33268;SDS011;19640;50.944;5.260;2023-12-04T07:24:57;4.40;;;2.83;;
33268;SDS011;19640;50.944;5.260;2023-12-04T07:27:23;3.45;;;2.65;;
33268;SDS011;19640;50.944;5.260;2023-12-04T07:29:49;5.85;;;3.00;;
33268;SDS011;19640;50.944;5.260;2023-12-04T07:32:15;2.13;;;1.40;;
33268;SDS011;19640;50.944;5.260;2023-12-04T07:34:40;2.83;;;2.20;;
33268;SDS011;19640;50.944;5.260;2023-12-04T07:37:06;5.82;;;2.45;;
33268;SDS011;19640;50.944;5.260;2023-12-04T07:39:32;3.55;;;2.28;;
33268;SDS011;19640;50.944;5.260;2023-12-04T07:41:58;5.15;;;2.88;;
33268;SDS011;19640;50.944;5.260;2023-12-04T07:44:23;3.60;;;2.60;;
33268;SDS011;19640;50.944;5.260;2023-12-04T07:46:49;3.47;;;2.20;;
33268;SDS011;19640;50.944;5.260;2023-12-04T07:49:15;3.33;;;2.40;;
33268;SDS011;19640;50.944;5.260;2023-12-04T07:51:40;5.95;;;2.90;;
33268;SDS011;19640;50.944;5.260;2023-12-04T07:54:06;7.72;;;3.30;;
33268;SDS011;19640;50.944;5.260;2023-12-04T07:56:32;3.42;;;2.50;;
33268;SDS011;19640;50.944;5.260;2023-12-04T07:58:57;5.55;;;2.90;;
33268;SDS011;19640;50.944;5.260;2023-12-04T08:01:23;3.90;;;3.03;;
33268;SDS011;19640;50.944;5.260;2023-12-04T08:03:49;3.83;;;1.92;;
33268;SDS011;19640;50.944;5.260;2023-12-04T08:06:15;4.03;;;2.92;;
33268;SDS011;19640;50.944;5.260;2023-12-04T08:08:43;3.40;;;2.78;;
33268;SDS011;19640;50.944;5.260;2023-12-04T08:11:12;4.05;;;2.42;;
33268;SDS011;19640;50.944;5.260;2023-12-04T08:13:38;3.60;;;2.53;;
33268;SDS011;19640;50.944;5.260;2023-12-04T08:16:04;4.90;;;2.55;;
33268;SDS011;19640;50.944;5.260;2023-12-04T08:18:30;4.53;;;2.58;;
33268;SDS011;19640;50.944;5.260;2023-12-04T08:20:56;4.72;;;2.97;;
33268;SDS011;19640;50.944;5.260;2023-12-04T08:23:24;3.63;;;2.78;;
33268;SDS011;19640;50.944;5.260;2023-12-04T08:25:50;3.45;;;2.63;;
33268;SDS011;19640;50.944;5.260;2023-12-04T08:28:16;3.80;;;2.80;;
33268;SDS011;19640;50.944;5.260;2023-12-04T08:30:42;4.20;;;2.50;;
33268;SDS011;19640;50.944;5.260;2023-12-04T08:33:08;4.10;;;3.03;;
33268;SDS011;19640;50.944;5.260;2023-12-04T08:35:34;3.90;;;2.17;;
33268;SDS011;19640;50.944;5.260;2023-12-04T08:37:59;3.50;;;2.63;;
33268;SDS011;19640;50.944;5.260;2023-12-04T08:40:25;4.07;;;2.55;;
33268;SDS011;19640;50.944;5.260;2023-12-04T08:42:51;4.65;;;2.90;;
33268;SDS011;19640;50.944;5.260;2023-12-04T08:45:17;7.40;;;2.78;;
33268;SDS011;19640;50.944;5.260;2023-12-04T08:47:44;4.43;;;3.03;;
33268;SDS011;19640;50.944;5.260;2023-12-04T08:50:09;3.72;;;2.90;;
33268;SDS011;19640;50.944;5.260;2023-12-04T08:52:35;4.78;;;3.05;;
33268;SDS011;19640;50.944;5.260;2023-12-04T08:55:01;7.85;;;3.40;;
33268;SDS011;19640;50.944;5.260;2023-12-04T08:57:27;4.72;;;2.95;;
33268;SDS011;19640;50.944;5.260;2023-12-04T08:59:53;5.30;;;2.90;;
33268;SDS011;19640;50.944;5.260;2023-12-04T09:02:19;3.85;;;2.80;;
33268;SDS011;19640;50.944;5.260;2023-12-04T09:04:45;3.50;;;2.70;;
33268;SDS011;19640;50.944;5.260;2023-12-04T09:07:10;4.28;;;2.90;;
33268;SDS011;19640;50.944;5.260;2023-12-04T09:09:36;4.32;;;2.92;;
33268;SDS011;19640;50.944;5.260;2023-12-04T09:12:02;3.55;;;2.35;;
33268;SDS011;19640;50.944;5.260;2023-12-04T09:14:27;4.38;;;2.88;;
33268;SDS011;19640;50.944;5.260;2023-12-04T09:16:53;4.22;;;3.03;;
33268;SDS011;19640;50.944;5.260;2023-12-04T09:19:19;4.18;;;3.20;;
33268;SDS011;19640;50.944;5.260;2023-12-04T09:21:45;3.83;;;2.00;;
33268;SDS011;19640;50.944;5.260;2023-12-04T09:24:11;3.13;;;2.25;;
33268;SDS011;19640;50.944;5.260;2023-12-04T09:26:38;5.13;;;3.35;;
33268;SDS011;19640;50.944;5.260;2023-12-04T09:29:04;4.32;;;3.03;;
33268;SDS011;19640;50.944;5.260;2023-12-04T09:31:30;4.55;;;2.25;;
33268;SDS011;19640;50.944;5.260;2023-12-04T09:33:56;3.78;;;2.83;;
33268;SDS011;19640;50.944;5.260;2023-12-04T09:36:22;3.42;;;2.80;;
33268;SDS011;19640;50.944;5.260;2023-12-04T09:38:48;4.45;;;3.10;;
33268;SDS011;19640;50.944;5.260;2023-12-04T09:41:14;4.30;;;2.88;;
33268;SDS011;19640;50.944;5.260;2023-12-04T09:43:41;4.32;;;2.92;;
33268;SDS011;19640;50.944;5.260;2023-12-04T09:46:09;3.80;;;3.22;;
33268;SDS011;19640;50.944;5.260;2023-12-04T09:48:35;4.25;;;3.30;;
33268;SDS011;19640;50.944;5.260;2023-12-04T09:51:02;4.72;;;2.53;;
33268;SDS011;19640;50.944;5.260;2023-12-04T09:53:28;4.07;;;2.72;;
33268;SDS011;19640;50.944;5.260;2023-12-04T09:55:57;3.55;;;2.67;;
33268;SDS011;19640;50.944;5.260;2023-12-04T09:58:27;6.25;;;3.03;;
33268;SDS011;19640;50.944;5.260;2023-12-04T10:00:56;4.75;;;2.55;;
33268;SDS011;19640;50.944;5.260;2023-12-04T10:03:23;3.60;;;2.47;;
33268;SDS011;19640;50.944;5.260;2023-12-04T10:05:49;4.45;;;2.92;;
33268;SDS011;19640;50.944;5.260;2023-12-04T10:08:15;4.50;;;2.42;;
33268;SDS011;19640;50.944;5.260;2023-12-04T10:10:42;4.38;;;3.00;;
33268;SDS011;19640;50.944;5.260;2023-12-04T10:13:14;6.32;;;3.65;;
33268;SDS011;19640;50.944;5.260;2023-12-04T10:15:46;4.18;;;3.10;;
33268;SDS011;19640;50.944;5.260;2023-12-04T10:18:29;3.85;;;2.58;;
33268;SDS011;19640;50.944;5.260;2023-12-04T10:20:56;3.15;;;2.30;;
33268;SDS011;19640;50.944;5.260;2023-12-04T10:23:39;2.33;;;1.55;;
33268;SDS011;19640;50.944;5.260;2023-12-04T10:26:06;5.20;;;3.28;;
33268;SDS011;19640;50.944;5.260;2023-12-04T10:28:34;7.63;;;4.20;;
33268;SDS011;19640;50.944;5.260;2023-12-04T10:31:01;5.60;;;3.88;;
33268;SDS011;19640;50.944;5.260;2023-12-04T10:33:31;3.85;;;3.42;;
33268;SDS011;19640;50.944;5.260;2023-12-04T10:35:59;7.67;;;2.90;;
33268;SDS011;19640;50.944;5.260;2023-12-04T10:38:25;4.65;;;3.42;;
33268;SDS011;19640;50.944;5.260;2023-12-04T10:40:52;6.07;;;4.43;;
33268;SDS011;19640;50.944;5.260;2023-12-04T10:43:21;6.68;;;3.20;;
33268;SDS011;19640;50.944;5.260;2023-12-04T10:45:50;6.90;;;3.90;;
33268;SDS011;19640;50.944;5.260;2023-12-04T10:48:17;8.02;;;4.10;;
33268;SDS011;19640;50.944;5.260;2023-12-04T10:50:48;5.40;;;3.53;;
33268;SDS011;19640;50.944;5.260;2023-12-04T10:53:15;4.70;;;3.50;;
33268;SDS011;19640;50.944;5.260;2023-12-04T10:55:43;10.32;;;3.13;;
33268;SDS011;19640;50.944;5.260;2023-12-04T10:58:12;5.67;;;3.50;;
33268;SDS011;19640;50.944;5.260;2023-12-04T11:00:46;6.32;;;4.10;;
33268;SDS011;19640;50.944;5.260;2023-12-04T11:03:16;4.93;;;3.95;;
33268;SDS011;19640;50.944;5.260;2023-12-04T11:05:45;6.43;;;3.95;;
33268;SDS011;19640;50.944;5.260;2023-12-04T11:08:18;1.98;;;1.52;;
33268;SDS011;19640;50.944;5.260;2023-12-04T11:10:45;6.68;;;3.65;;
33268;SDS011;19640;50.944;5.260;2023-12-04T11:13:25;6.78;;;3.90;;
33268;SDS011;19640;50.944;5.260;2023-12-04T11:16:17;7.95;;;4.00;;
33268;SDS011;19640;50.944;5.260;2023-12-04T11:21:24;5.28;;;1.58;;
33268;SDS011;19640;50.944;5.260;2023-12-04T11:23:51;5.18;;;4.10;;
33268;SDS011;19640;50.944;5.260;2023-12-04T11:26:17;5.25;;;4.28;;
33268;SDS011;19640;50.944;5.260;2023-12-04T11:28:43;4.13;;;2.78;;
33268;SDS011;19640;50.944;5.260;2023-12-04T11:31:10;5.38;;;3.67;;
33268;SDS011;19640;50.944;5.260;2023-12-04T11:33:37;4.43;;;3.33;;
33268;SDS011;19640;50.944;5.260;2023-12-04T11:36:13;5.45;;;4.00;;
33268;SDS011;19640;50.944;5.260;2023-12-04T11:38:46;3.28;;;2.35;;
33268;SDS011;19640;50.944;5.260;2023-12-04T11:43:44;4.10;;;2.35;;
33268;SDS011;19640;50.944;5.260;2023-12-04T11:46:13;3.38;;;2.83;;
33268;SDS011;19640;50.944;5.260;2023-12-04T11:48:45;5.25;;;3.83;;
33268;SDS011;19640;50.944;5.260;2023-12-04T11:51:15;3.80;;;2.63;;
33268;SDS011;19640;50.944;5.260;2023-12-04T11:53:59;3.28;;;2.50;;
33268;SDS011;19640;50.944;5.260;2023-12-04T11:56:26;6.57;;;4.60;;
33268;SDS011;19640;50.944;5.260;2023-12-04T11:58:54;6.40;;;3.80;;
33268;SDS011;19640;50.944;5.260;2023-12-04T12:01:38;5.20;;;3.65;;
33268;SDS011;19640;50.944;5.260;2023-12-04T12:04:07;9.38;;;4.32;;
33268;SDS011;19640;50.944;5.260;2023-12-04T12:06:33;10.00;;;5.05;;
33268;SDS011;19640;50.944;5.260;2023-12-04T12:09:04;5.93;;;4.40;;
33268;SDS011;19640;50.944;5.260;2023-12-04T12:11:32;5.55;;;3.35;;
33268;SDS011;19640;50.944;5.260;2023-12-04T12:13:59;5.53;;;3.20;;
33268;SDS011;19640;50.944;5.260;2023-12-04T12:16:26;6.07;;;4.30;;
33268;SDS011;19640;50.944;5.260;2023-12-04T12:18:53;5.93;;;4.20;;
33268;SDS011;19640;50.944;5.260;2023-12-04T12:21:20;5.32;;;4.13;;
33268;SDS011;19640;50.944;5.260;2023-12-04T12:23:45;12.18;;;4.15;;
33268;SDS011;19640;50.944;5.260;2023-12-04T12:26:12;7.38;;;4.30;;
33268;SDS011;19640;50.944;5.260;2023-12-04T12:28:38;6.60;;;4.18;;
33268;SDS011;19640;50.944;5.260;2023-12-04T12:31:03;6.05;;;4.25;;
33268;SDS011;19640;50.944;5.260;2023-12-04T12:33:30;4.70;;;3.10;;
33268;SDS011;19640;50.944;5.260;2023-12-04T12:35:57;8.95;;;4.13;;
33268;SDS011;19640;50.944;5.260;2023-12-04T12:38:26;6.82;;;4.57;;
33268;SDS011;19640;50.944;5.260;2023-12-04T12:40:58;6.78;;;4.53;;
33268;SDS011;19640;50.944;5.260;2023-12-04T12:43:23;4.97;;;3.97;;
33268;SDS011;19640;50.944;5.260;2023-12-04T12:45:52;5.63;;;3.70;;
33268;SDS011;19640;50.944;5.260;2023-12-04T12:48:18;5.38;;;3.78;;
33268;SDS011;19640;50.944;5.260;2023-12-04T12:50:45;4.97;;;3.50;;
33268;SDS011;19640;50.944;5.260;2023-12-04T12:53:13;5.00;;;3.90;;
33268;SDS011;19640;50.944;5.260;2023-12-04T12:55:42;5.28;;;3.63;;
33268;SDS011;19640;50.944;5.260;2023-12-04T12:58:10;6.55;;;4.55;;
33268;SDS011;19640;50.944;5.260;2023-12-04T13:00:35;7.25;;;4.13;;
33268;SDS011;19640;50.944;5.260;2023-12-04T13:03:01;6.13;;;4.03;;
33268;SDS011;19640;50.944;5.260;2023-12-04T13:05:27;6.00;;;4.22;;
33268;SDS011;19640;50.944;5.260;2023-12-04T13:07:53;7.07;;;3.85;;
33268;SDS011;19640;50.944;5.260;2023-12-04T13:10:20;6.82;;;4.25;;
33268;SDS011;19640;50.944;5.260;2023-12-04T13:12:48;4.85;;;3.67;;
33268;SDS011;19640;50.944;5.260;2023-12-04T13:15:17;5.40;;;3.55;;
33268;SDS011;19640;50.944;5.260;2023-12-04T13:17:43;5.15;;;3.90;;
33268;SDS011;19640;50.944;5.260;2023-12-04T13:20:09;6.20;;;4.28;;
33268;SDS011;19640;50.944;5.260;2023-12-04T13:22:39;5.65;;;4.13;;
33268;SDS011;19640;50.944;5.260;2023-12-04T13:25:05;4.82;;;3.95;;
33268;SDS011;19640;50.944;5.260;2023-12-04T13:27:37;5.40;;;4.40;;
33268;SDS011;19640;50.944;5.260;2023-12-04T13:30:05;5.45;;;4.22;;
33268;SDS011;19640;50.944;5.260;2023-12-04T13:32:36;4.93;;;3.78;;
33268;SDS011;19640;50.944;5.260;2023-12-04T13:37:32;5.38;;;4.07;;
33268;SDS011;19640;50.944;5.260;2023-12-04T13:40:02;4.70;;;3.38;;
33268;SDS011;19640;50.944;5.260;2023-12-04T13:42:32;4.68;;;3.83;;
33268;SDS011;19640;50.944;5.260;2023-12-04T13:45:16;5.47;;;3.42;;
33268;SDS011;19640;50.944;5.260;2023-12-04T13:47:42;5.45;;;3.40;;
33268;SDS011;19640;50.944;5.260;2023-12-04T13:50:09;7.32;;;4.43;;
33268;SDS011;19640;50.944;5.260;2023-12-04T13:52:35;6.22;;;4.15;;
33268;SDS011;19640;50.944;5.260;2023-12-04T13:55:02;4.05;;;3.45;;
33268;SDS011;19640;50.944;5.260;2023-12-04T13:57:38;3.95;;;3.53;;
33268;SDS011;19640;50.944;5.260;2023-12-04T14:00:19;4.88;;;3.58;;
33268;SDS011;19640;50.944;5.260;2023-12-04T14:02:45;5.00;;;4.03;;
33268;SDS011;19640;50.944;5.260;2023-12-04T14:05:11;5.18;;;4.13;;
33268;SDS011;19640;50.944;5.260;2023-12-04T14:07:40;5.30;;;4.20;;
33268;SDS011;19640;50.944;5.260;2023-12-04T14:10:08;5.47;;;4.35;;
33268;SDS011;19640;50.944;5.260;2023-12-04T14:12:34;6.75;;;4.53;;
33268;SDS011;19640;50.944;5.260;2023-12-04T14:15:02;3.85;;;3.35;;
33268;SDS011;19640;50.944;5.260;2023-12-04T14:17:28;6.68;;;4.20;;
33268;SDS011;19640;50.944;5.260;2023-12-04T14:19:55;4.25;;;3.85;;
33268;SDS011;19640;50.944;5.260;2023-12-04T14:22:21;5.55;;;3.55;;
33268;SDS011;19640;50.944;5.260;2023-12-04T14:24:46;7.38;;;4.07;;
33268;SDS011;19640;50.944;5.260;2023-12-04T14:27:13;7.68;;;4.32;;
33268;SDS011;19640;50.944;5.260;2023-12-04T14:29:39;8.25;;;4.50;;
33268;SDS011;19640;50.944;5.260;2023-12-04T14:32:05;5.00;;;4.20;;
33268;SDS011;19640;50.944;5.260;2023-12-04T14:34:31;5.90;;;4.63;;
33268;SDS011;19640;50.944;5.260;2023-12-04T14:36:57;5.07;;;4.28;;
33268;SDS011;19640;50.944;5.260;2023-12-04T14:39:24;6.35;;;4.22;;
33268;SDS011;19640;50.944;5.260;2023-12-04T14:41:50;7.00;;;4.13;;
33268;SDS011;19640;50.944;5.260;2023-12-04T14:44:16;7.07;;;4.20;;
33268;SDS011;19640;50.944;5.260;2023-12-04T14:46:42;5.35;;;4.38;;
33268;SDS011;19640;50.944;5.260;2023-12-04T14:49:08;4.97;;;4.47;;
33268;SDS011;19640;50.944;5.260;2023-12-04T14:51:33;8.60;;;4.57;;